Time;durP1;ratioP1;P1;durP2;ratioP2;P2;SDS_P1;SDS_P2;PMS_P1;PMS_P2;Temp;Humidity;BMP_temperature;BMP_pressure;BME280_temperature;BME280_humidity;BME280_pressure;Samples;Min_cycle;Max_cycle;Signal;HPM_P1;HPM_P2
2022/11/18 00:02:02;;;;;;;5.50;2.70;;;9.10;99.90;;;;;;4984329;28;20515;-70
2022/11/18 00:04:28;;;;;;;5.18;3.03;;;9.20;99.90;;;;;;4987219;28;20045;-71
2022/11/18 00:06:56;;;;;;;4.00;2.60;;;9.10;99.90;;;;;;4989597;28;20331;-71
2022/11/18 00:09:22;;;;;;;9.20;3.30;;;9.10;99.90;;;;;;4981125;28;20026;-70
2022/11/18 00:14:31;;;;;;;5.15;2.90;;;9.10;99.90;;;;;;4981200;28;20402;-70
2022/11/18 00:17:03;;;;;;;7.50;2.97;;;9.10;99.90;;;;;;4994129;28;20039;-70
2022/11/18 00:19:34;;;;;;;9.15;2.70;;;9.10;99.90;;;;;;4993546;28;20018;-70
2022/11/18 00:22:00;;;;;;;6.47;2.90;;;9.10;99.90;;;;;;4994017;28;20038;-70
2022/11/18 00:24:26;;;;;;;6.13;2.83;;;9.10;99.90;;;;;;4993195;28;20043;-71
2022/11/18 00:26:52;;;;;;;6.15;2.60;;;9.00;99.90;;;;;;4992228;28;20027;-70
2022/11/18 00:29:18;;;;;;;7.07;2.78;;;9.00;99.90;;;;;;4993269;28;20099;-71
2022/11/18 00:31:44;;;;;;;7.32;2.88;;;9.00;99.90;;;;;;4985474;28;20392;-70
2022/11/18 00:34:12;;;;;;;4.68;2.63;;;9.00;99.90;;;;;;4987819;28;20030;-71
2022/11/18 00:36:38;;;;;;;8.02;2.97;;;9.00;99.90;;;;;;4994014;28;20030;-70
2022/11/18 00:39:04;;;;;;;9.60;3.30;;;9.00;99.90;;;;;;4985753;28;20352;-70
2022/11/18 00:42:49;;;;;;;6.32;2.83;;;8.90;99.90;;;;;;4982212;28;20040;-70
2022/11/18 00:44:15;;;;;;;;;;;8.90;99.90;;;;;;4993363;28;20467;-70
2022/11/18 00:46:41;;;;;;;8.18;3.20;;;8.90;99.90;;;;;;4976427;28;20005;-70
2022/11/18 00:49:07;;;;;;;6.70;3.30;;;8.90;99.90;;;;;;4988865;28;20034;-70
2022/11/18 00:51:33;;;;;;;7.22;3.53;;;8.90;99.90;;;;;;4982992;28;20030;-70
2022/11/18 00:53:59;;;;;;;6.60;3.85;;;8.90;99.90;;;;;;4988216;28;20080;-71
2022/11/18 00:56:24;;;;;;;6.10;3.47;;;8.90;99.90;;;;;;4983016;28;20391;-71
2022/11/18 00:58:50;;;;;;;9.02;3.80;;;8.90;99.90;;;;;;4988583;28;20027;-70
2022/11/18 01:01:15;;;;;;;8.82;3.95;;;8.90;99.90;;;;;;4983553;28;20023;-70
2022/11/18 01:03:41;;;;;;;7.82;3.65;;;8.90;99.90;;;;;;4988544;28;20038;-71
2022/11/18 01:06:07;;;;;;;8.30;3.75;;;8.90;99.90;;;;;;4985505;28;20069;-70
2022/11/18 01:08:32;;;;;;;6.68;4.35;;;8.80;99.90;;;;;;4993721;28;20085;-71
2022/11/18 01:13:18;;;;;;;8.20;4.05;;;8.90;99.90;;;;;;4990060;28;20026;-71
2022/11/18 01:13:43;;;;;;;;;;;8.90;99.90;;;;;;4992541;28;20034;-71
2022/11/18 01:16:09;;;;;;;8.95;4.20;;;8.80;99.90;;;;;;4993216;28;20370;-71
2022/11/18 01:18:35;;;;;;;8.88;4.70;;;8.80;99.90;;;;;;4992781;28;20026;-71
2022/11/18 01:21:02;;;;;;;11.27;5.00;;;8.80;99.90;;;;;;4978968;28;20024;-70
2022/11/18 01:23:27;;;;;;;8.85;4.45;;;8.80;99.90;;;;;;4985279;28;20178;-71
2022/11/18 01:25:53;;;;;;;9.25;5.47;;;8.80;99.90;;;;;;4992868;28;20109;-71
2022/11/18 01:28:19;;;;;;;10.15;5.22;;;8.80;99.90;;;;;;4984670;28;20023;-70
2022/11/18 01:30:45;;;;;;;9.48;5.50;;;8.80;99.90;;;;;;4986605;28;20686;-72
2022/11/18 01:33:11;;;;;;;9.80;5.07;;;8.80;99.90;;;;;;4979757;28;20027;-70
2022/11/18 01:35:42;;;;;;;9.98;4.72;;;8.80;99.90;;;;;;4992323;28;20038;-70
2022/11/18 01:38:09;;;;;;;10.95;5.07;;;8.80;99.90;;;;;;4987694;28;20030;-71
2022/11/18 01:40:36;;;;;;;13.85;5.30;;;8.80;99.90;;;;;;4979711;28;20023;-70
2022/11/18 01:43:04;;;;;;;9.18;5.13;;;8.80;99.90;;;;;;4988570;28;20050;-70
2022/11/18 01:45:34;;;;;;;10.07;5.78;;;8.70;99.90;;;;;;4983586;28;20039;-70
2022/11/18 01:48:21;;;;;;;10.32;5.35;;;8.70;99.90;;;;;;4993054;28;20022;-71
2022/11/18 01:51:03;;;;;;;10.15;5.40;;;8.70;99.90;;;;;;4982692;28;20251;-71
2022/11/18 01:53:33;;;;;;;9.57;5.88;;;8.70;99.90;;;;;;4990184;28;20352;-71
2022/11/18 01:56:04;;;;;;;11.35;6.00;;;8.70;99.90;;;;;;4991427;28;20560;-71
2022/11/18 01:58:40;;;;;;;10.52;6.45;;;8.70;99.90;;;;;;4992571;28;20093;-70
2022/11/18 02:01:06;;;;;;;9.80;6.13;;;8.70;99.90;;;;;;4987321;28;20593;-71
2022/11/18 02:03:33;;;;;;;11.32;6.25;;;8.60;99.90;;;;;;4987119;28;20041;-70
2022/11/18 02:06:01;;;;;;;14.65;6.03;;;8.60;99.90;;;;;;4991022;28;20031;-70
2022/11/18 02:08:28;;;;;;;11.02;6.20;;;8.60;99.90;;;;;;4984879;28;20035;-70
2022/11/18 02:10:53;;;;;;;11.32;6.32;;;8.60;99.90;;;;;;4986322;28;20046;-71
2022/11/18 02:13:19;;;;;;;15.38;6.97;;;8.60;99.90;;;;;;4983503;28;20089;-71
2022/11/18 02:15:51;;;;;;;16.27;6.68;;;8.60;99.90;;;;;;4989356;28;20487;-70
2022/11/18 02:18:44;;;;;;;12.10;6.78;;;8.60;99.90;;;;;;4981195;28;20023;-70
2022/11/18 02:21:48;;;;;;;14.32;7.10;;;8.60;99.90;;;;;;4991188;28;20352;-70
2022/11/18 02:24:34;;;;;;;16.52;7.30;;;8.60;99.90;;;;;;4977190;28;20074;-70
2022/11/18 02:27:08;;;;;;;12.00;7.30;;;8.60;99.90;;;;;;4984050;28;20034;-71
2022/11/18 02:29:48;;;;;;;12.80;7.10;;;8.50;99.90;;;;;;4987548;28;20097;-71
2022/11/18 02:32:22;;;;;;;17.75;7.68;;;8.50;99.90;;;;;;4990030;28;20018;-71
2022/11/18 02:35:13;;;;;;;11.13;5.32;;;8.50;99.90;;;;;;4991807;28;20037;-71
2022/11/18 02:37:49;;;;;;;12.82;7.18;;;8.50;99.90;;;;;;4986590;28;20541;-70
2022/11/18 02:40:17;;;;;;;13.30;6.88;;;8.50;99.90;;;;;;4990948;28;20026;-71
2022/11/18 02:42:48;;;;;;;13.70;7.13;;;8.50;99.90;;;;;;4987924;28;20483;-70
2022/11/18 02:45:17;;;;;;;16.55;7.40;;;8.50;99.90;;;;;;4987013;28;20552;-70
2022/11/18 02:47:47;;;;;;;13.65;7.43;;;8.50;99.90;;;;;;4991618;28;20454;-70
2022/11/18 02:50:17;;;;;;;12.80;7.32;;;8.50;99.90;;;;;;4984312;28;20026;-70
2022/11/18 02:52:45;;;;;;;15.75;7.38;;;8.40;99.90;;;;;;4990787;28;20486;-70
2022/11/18 02:55:13;;;;;;;13.38;7.15;;;8.40;99.90;;;;;;4986142;28;20110;-71
2022/11/18 02:57:40;;;;;;;16.42;7.28;;;8.40;99.90;;;;;;4989532;28;20045;-71
2022/11/18 03:00:07;;;;;;;15.40;7.22;;;8.40;99.90;;;;;;4989375;28;20089;-70
2022/11/18 03:02:44;;;;;;;13.00;7.18;;;8.40;99.90;;;;;;4986839;28;20081;-71
2022/11/18 03:05:45;;;;;;;12.52;7.03;;;8.50;99.90;;;;;;4988550;28;20076;-71
2022/11/18 03:08:21;;;;;;;16.40;7.00;;;8.40;99.90;;;;;;4979078;28;20026;-71
2022/11/18 03:11:15;;;;;;;14.05;7.00;;;8.40;99.90;;;;;;4985238;28;20031;-71
2022/11/18 03:13:47;;;;;;;11.55;7.15;;;8.40;99.90;;;;;;4959156;28;20619;-70
2022/11/18 03:16:22;;;;;;;12.63;7.13;;;8.40;99.90;;;;;;4980104;28;20025;-71
2022/11/18 03:19:06;;;;;;;;;;;8.40;99.90;;;;;;4977809;28;20033;-70
2022/11/18 03:21:39;;;;;;;15.45;6.80;;;8.40;99.90;;;;;;4979900;28;20282;-71
2022/11/18 03:24:17;;;;;;;11.80;6.80;;;8.40;99.90;;;;;;4989432;28;20041;-71
2022/11/18 03:26:51;;;;;;;11.27;6.75;;;8.50;99.90;;;;;;5000227;28;20137;-71
2022/11/18 03:29:21;;;;;;;9.82;6.30;;;8.50;99.90;;;;;;4990549;28;20382;-71
2022/11/18 03:31:55;;;;;;;12.63;6.80;;;8.50;99.90;;;;;;4990849;28;20026;-70
2022/11/18 03:34:34;;;;;;;11.93;6.53;;;8.50;99.90;;;;;;4974802;28;20023;-70
2022/11/18 03:37:02;;;;;;;17.48;6.60;;;8.60;99.90;;;;;;4980641;28;20683;-70
2022/11/18 03:39:32;;;;;;;15.48;6.63;;;8.60;99.90;;;;;;4987827;28;20803;-70
2022/11/18 03:42:08;;;;;;;12.82;6.38;;;8.60;99.90;;;;;;4990821;28;20487;-71
2022/11/18 03:44:36;;;;;;;10.52;6.30;;;8.70;99.90;;;;;;4988811;28;20049;-71
2022/11/18 03:47:15;;;;;;;11.55;6.40;;;8.70;99.90;;;;;;4977677;28;20019;-70
2022/11/18 03:50:07;;;;;;;12.38;6.35;;;8.70;99.90;;;;;;4989173;28;20041;-71
2022/11/18 03:52:35;;;;;;;12.95;6.38;;;8.80;99.90;;;;;;4988786;28;20061;-71
2022/11/18 03:55:11;;;;;;;11.98;6.10;;;8.80;99.90;;;;;;4983729;28;20037;-72
2022/11/18 03:58:09;;;;;;;14.32;6.53;;;8.80;99.90;;;;;;4983502;28;20030;-71
2022/11/18 04:00:44;;;;;;;13.45;6.18;;;8.80;99.90;;;;;;4953140;28;20053;-71
2022/11/18 04:03:10;;;;;;;14.52;6.53;;;8.80;99.90;;;;;;4983825;28;20049;-71
2022/11/18 04:05:39;;;;;;;16.13;6.60;;;8.70;99.90;;;;;;4989790;28;20053;-71
2022/11/18 04:08:11;;;;;;;16.83;6.07;;;8.70;99.90;;;;;;4990052;28;20591;-72
2022/11/18 04:10:39;;;;;;;13.35;5.80;;;8.70;99.90;;;;;;4990710;28;20499;-71
2022/11/18 04:13:17;;;;;;;11.73;6.47;;;8.70;99.90;;;;;;4988839;28;20062;-71
2022/11/18 04:15:43;;;;;;;13.82;6.60;;;8.70;99.90;;;;;;4990340;28;20030;-71
2022/11/18 04:18:09;;;;;;;13.23;6.28;;;8.70;99.90;;;;;;4990261;28;20435;-71
2022/11/18 04:20:36;;;;;;;16.00;5.90;;;8.70;99.90;;;;;;4988284;28;20022;-71
2022/11/18 04:23:03;;;;;;;13.32;5.78;;;8.70;99.90;;;;;;4985401;28;20026;-70
2022/11/18 04:25:28;;;;;;;14.38;6.15;;;8.70;99.90;;;;;;4985139;28;20046;-70
2022/11/18 04:27:54;;;;;;;12.18;5.82;;;8.70;99.90;;;;;;4977937;28;20088;-71
2022/11/18 04:30:20;;;;;;;13.20;5.63;;;8.70;99.90;;;;;;4985358;28;20029;-70
2022/11/18 04:32:45;;;;;;;17.08;6.90;;;8.70;99.90;;;;;;4983883;28;20042;-71
2022/11/18 04:35:11;;;;;;;14.93;5.80;;;8.80;99.90;;;;;;4975252;28;20043;-71
2022/11/18 04:37:36;;;;;;;11.25;5.78;;;8.80;99.90;;;;;;4976127;28;20490;-70
2022/11/18 04:40:03;;;;;;;15.35;5.70;;;8.80;99.90;;;;;;4987454;28;20022;-71
2022/11/18 04:42:29;;;;;;;14.25;5.78;;;8.80;99.90;;;;;;4986189;28;20127;-71
2022/11/18 04:44:55;;;;;;;18.70;6.15;;;8.80;99.90;;;;;;4993474;28;20093;-71
2022/11/18 04:47:20;;;;;;;11.05;5.18;;;8.80;99.90;;;;;;4981891;28;20023;-70
2022/11/18 04:49:46;;;;;;;12.57;5.43;;;8.80;99.90;;;;;;4987729;28;20027;-71
2022/11/18 04:52:12;;;;;;;10.57;5.32;;;8.80;99.90;;;;;;4987334;28;20030;-70
2022/11/18 04:54:38;;;;;;;17.58;5.28;;;8.80;99.90;;;;;;4984804;28;20519;-71
2022/11/18 04:57:04;;;;;;;12.75;5.15;;;8.80;99.90;;;;;;4985444;28;20018;-71
2022/11/18 04:59:29;;;;;;;13.95;5.57;;;8.80;99.90;;;;;;4981653;28;20046;-70
2022/11/18 05:01:56;;;;;;;10.73;5.20;;;8.80;99.90;;;;;;4986471;28;20569;-70
2022/11/18 05:04:24;;;;;;;9.65;5.13;;;8.80;99.90;;;;;;4983369;28;20055;-70
2022/11/18 05:06:50;;;;;;;15.93;5.50;;;8.70;99.90;;;;;;4993284;28;20034;-71
2022/11/18 05:09:16;;;;;;;17.70;5.75;;;8.70;99.90;;;;;;4992111;28;20022;-71
2022/11/18 05:14:28;;;;;;;8.53;4.00;;;8.70;99.90;;;;;;4991582;28;20088;-71
2022/11/18 05:16:55;;;;;;;11.70;4.88;;;8.70;99.90;;;;;;4978780;28;20084;-71
2022/11/18 05:19:21;;;;;;;18.92;5.20;;;8.60;99.90;;;;;;4989762;28;20030;-71
2022/11/18 05:21:47;;;;;;;9.57;4.90;;;8.60;99.90;;;;;;4989820;28;20096;-70
2022/11/18 05:24:12;;;;;;;12.93;5.10;;;8.60;99.90;;;;;;4989787;28;20035;-70
2022/11/18 05:26:38;;;;;;;10.68;5.30;;;8.60;99.90;;;;;;4990396;28;20018;-72
2022/11/18 05:29:04;;;;;;;9.60;5.00;;;8.60;99.90;;;;;;4987540;28;20023;-71
2022/11/18 05:31:30;;;;;;;13.88;5.47;;;8.50;99.90;;;;;;4991968;28;20109;-71
2022/11/18 05:33:55;;;;;;;14.30;6.00;;;8.50;99.90;;;;;;4987069;28;20038;-70
2022/11/18 05:36:21;;;;;;;12.30;5.63;;;8.50;99.90;;;;;;4989095;28;20035;-70
2022/11/18 05:38:48;;;;;;;15.15;5.18;;;8.50;99.90;;;;;;4988561;28;20078;-72
2022/11/18 05:43:09;;;;;;;17.58;6.15;;;8.50;99.90;;;;;;4987724;28;20029;-71
2022/11/18 05:44:00;;;;;;;16.88;5.95;;;8.50;99.90;;;;;;4991944;28;20418;-70
2022/11/18 05:46:26;;;;;;;13.57;5.78;;;8.50;99.90;;;;;;4991827;28;20050;-71
2022/11/18 05:48:52;;;;;;;14.80;5.72;;;8.40;99.90;;;;;;4991506;28;20070;-70
2022/11/18 05:51:18;;;;;;;13.88;6.22;;;8.40;99.90;;;;;;4990901;28;20116;-70
2022/11/18 05:53:43;;;;;;;15.88;5.68;;;8.40;99.90;;;;;;4993923;28;20033;-71
2022/11/18 05:56:22;;;;;;;13.73;5.28;;;8.40;99.90;;;;;;4991674;28;20896;-71
2022/11/18 05:58:48;;;;;;;13.57;5.70;;;8.40;99.90;;;;;;4990865;28;20022;-69
2022/11/18 06:01:17;;;;;;;16.50;6.03;;;8.40;99.90;;;;;;4988472;28;20022;-70
2022/11/18 06:03:43;;;;;;;14.40;6.25;;;8.40;99.90;;;;;;4989843;28;20026;-71
2022/11/18 06:06:11;;;;;;;16.45;6.28;;;8.30;99.90;;;;;;4987138;28;20026;-69
2022/11/18 06:08:42;;;;;;;16.23;6.13;;;8.30;99.90;;;;;;4990027;28;20022;-70
2022/11/18 06:11:13;;;;;;;13.68;5.72;;;8.30;99.90;;;;;;4991130;28;20026;-69
2022/11/18 06:13:53;;;;;;;16.38;6.25;;;8.30;99.90;;;;;;4990027;28;20073;-72
2022/11/18 06:16:23;;;;;;;14.45;6.55;;;8.30;99.90;;;;;;4987700;28;20109;-71
2022/11/18 06:18:49;;;;;;;17.00;6.22;;;8.30;99.90;;;;;;4988004;28;20030;-71
2022/11/18 06:21:14;;;;;;;12.85;6.30;;;8.30;99.90;;;;;;4991698;28;20030;-71
2022/11/18 06:23:41;;;;;;;19.75;6.18;;;8.30;99.90;;;;;;4987936;28;20030;-71
2022/11/18 06:26:08;;;;;;;17.05;5.93;;;8.30;99.90;;;;;;4987023;28;20034;-72
2022/11/18 06:28:35;;;;;;;13.27;5.70;;;8.30;99.90;;;;;;4988927;28;20019;-71
2022/11/18 06:31:01;;;;;;;12.63;5.45;;;8.30;99.90;;;;;;4990523;28;20534;-71
2022/11/18 06:33:26;;;;;;;14.80;6.07;;;8.30;99.90;;;;;;4990971;28;20029;-72
2022/11/18 06:35:52;;;;;;;15.02;5.25;;;8.20;99.90;;;;;;4991318;28;20073;-70
2022/11/18 06:38:17;;;;;;;16.38;5.80;;;8.20;99.90;;;;;;4986526;28;20027;-70
2022/11/18 06:40:43;;;;;;;18.70;5.75;;;8.20;99.90;;;;;;4988159;28;20077;-71
2022/11/18 06:48:47;;;;;;;16.13;5.40;;;8.20;99.90;;;;;;4991445;28;20068;-71
2022/11/18 06:51:13;;;;;;;12.45;5.55;;;8.20;99.90;;;;;;4987321;28;20035;-71
2022/11/18 06:53:38;;;;;;;12.07;4.82;;;8.20;99.90;;;;;;4982586;28;20026;-71
2022/11/18 06:56:09;;;;;;;11.50;5.03;;;8.20;99.90;;;;;;4988936;28;20015;-71
2022/11/18 06:58:35;;;;;;;13.40;4.85;;;8.30;99.90;;;;;;4977928;28;20027;-71
2022/11/18 07:01:20;;;;;;;14.90;5.03;;;8.20;99.90;;;;;;4971811;28;20027;-71
2022/11/18 07:03:46;;;;;;;10.40;4.87;;;8.30;99.90;;;;;;4978389;28;20440;-71
2022/11/18 07:06:14;;;;;;;12.90;5.15;;;8.30;99.90;;;;;;4986188;28;20050;-71
2022/11/18 07:08:40;;;;;;;14.50;5.25;;;8.30;99.90;;;;;;4975826;28;20033;-72
2022/11/18 07:11:11;;;;;;;14.35;5.45;;;8.30;99.90;;;;;;4989898;28;20023;-72
2022/11/18 07:13:37;;;;;;;12.60;5.00;;;8.30;99.90;;;;;;4986748;28;20030;-72
2022/11/18 07:16:04;;;;;;;11.98;4.88;;;8.30;99.90;;;;;;4990728;28;20026;-71
2022/11/18 07:18:36;;;;;;;10.68;4.97;;;8.30;99.90;;;;;;4990325;28;20030;-71
2022/11/18 07:21:06;;;;;;;13.93;4.90;;;8.40;99.90;;;;;;4989758;28;20498;-71
2022/11/18 07:23:33;;;;;;;15.65;5.75;;;8.40;99.90;;;;;;4989835;28;20426;-71
2022/11/18 07:25:59;;;;;;;17.85;5.03;;;8.40;99.90;;;;;;4989431;28;20380;-72
2022/11/18 07:28:25;;;;;;;14.85;5.47;;;8.50;99.90;;;;;;4990603;28;20038;-71
2022/11/18 07:30:51;;;;;;;18.52;6.30;;;8.50;99.90;;;;;;4990565;28;20077;-71
2022/11/18 07:33:16;;;;;;;14.40;5.70;;;8.50;99.90;;;;;;4989966;28;20039;-72
2022/11/18 07:35:42;;;;;;;15.50;5.93;;;8.50;99.90;;;;;;4990083;28;20050;-71
2022/11/18 07:38:08;;;;;;;11.38;5.53;;;8.60;99.90;;;;;;4989884;28;20113;-71
2022/11/18 07:40:33;;;;;;;15.23;5.43;;;8.60;99.90;;;;;;4990542;28;20066;-72
2022/11/18 07:42:59;;;;;;;11.80;5.35;;;8.60;99.90;;;;;;4989970;28;20444;-71
2022/11/18 07:45:24;;;;;;;17.80;5.63;;;8.60;99.90;;;;;;4990050;28;20029;-72
2022/11/18 07:47:50;;;;;;;13.23;5.35;;;8.70;99.90;;;;;;4990107;28;20034;-72
2022/11/18 07:50:17;;;;;;;14.93;5.40;;;8.70;99.90;;;;;;4990113;28;20026;-71
2022/11/18 07:52:43;;;;;;;13.05;5.15;;;8.70;99.90;;;;;;4990223;28;20022;-72
2022/11/18 07:55:09;;;;;;;15.13;5.45;;;8.80;99.90;;;;;;4980656;28;20081;-72
2022/11/18 07:57:34;;;;;;;14.07;5.50;;;8.80;99.90;;;;;;4983564;28;20109;-71
2022/11/18 08:00:00;;;;;;;15.07;5.68;;;8.80;99.90;;;;;;4978768;28;20030;-71
2022/11/18 08:02:25;;;;;;;14.18;5.18;;;8.80;99.90;;;;;;4990210;28;20027;-72
2022/11/18 08:04:51;;;;;;;13.75;5.18;;;8.80;99.90;;;;;;4989421;28;20034;-72
2022/11/18 08:07:16;;;;;;;10.98;4.57;;;8.90;99.90;;;;;;4990492;28;20035;-72
2022/11/18 08:09:42;;;;;;;13.13;5.13;;;8.90;99.90;;;;;;4989214;28;20026;-71
2022/11/18 08:12:08;;;;;;;15.52;5.13;;;8.90;99.90;;;;;;4974386;28;20097;-71
2022/11/18 08:14:33;;;;;;;14.80;5.00;;;9.00;99.90;;;;;;4990837;28;20042;-71
2022/11/18 08:16:59;;;;;;;11.05;4.47;;;9.00;99.90;;;;;;4993653;28;20371;-71
2022/11/18 08:19:24;;;;;;;13.73;5.03;;;9.00;99.90;;;;;;4993339;28;20026;-70
2022/11/18 08:21:50;;;;;;;15.15;5.00;;;9.00;99.90;;;;;;4994043;28;20718;-71
2022/11/18 08:24:15;;;;;;;11.40;4.30;;;9.10;99.90;;;;;;4993924;28;20545;-71
2022/11/18 08:26:41;;;;;;;16.35;4.72;;;9.10;99.90;;;;;;4993590;28;20064;-72
2022/11/18 08:29:06;;;;;;;15.63;4.68;;;9.10;99.90;;;;;;4993746;28;20065;-71
2022/11/18 08:31:32;;;;;;;11.60;4.30;;;9.10;99.90;;;;;;4993749;28;20023;-72
2022/11/18 08:34:03;;;;;;;12.20;4.07;;;9.10;99.90;;;;;;4993546;28;20378;-71
2022/11/18 08:36:31;;;;;;;14.95;4.20;;;9.10;99.90;;;;;;4993703;28;20026;-70
2022/11/18 08:38:58;;;;;;;17.83;4.75;;;9.20;99.90;;;;;;4992942;28;20414;-72
2022/11/18 08:41:32;;;;;;;12.85;4.10;;;9.20;99.90;;;;;;4993735;28;20026;-71
2022/11/18 08:43:57;;;;;;;11.43;4.00;;;9.20;99.90;;;;;;4992398;28;20422;-72
2022/11/18 08:46:23;;;;;;;19.73;4.43;;;9.20;99.90;;;;;;4993277;28;20180;-71
2022/11/18 08:48:49;;;;;;;12.10;4.07;;;9.30;99.90;;;;;;4993444;28;20033;-71
2022/11/18 08:51:14;;;;;;;10.43;3.97;;;9.30;99.90;;;;;;4992246;28;20025;-72
2022/11/18 08:53:40;;;;;;;13.52;4.30;;;9.30;99.90;;;;;;4993338;28;20049;-72
2022/11/18 08:56:06;;;;;;;9.60;3.90;;;9.30;99.90;;;;;;4993145;28;20023;-72
2022/11/18 08:58:32;;;;;;;13.07;4.55;;;9.30;99.90;;;;;;4993158;28;20037;-72
2022/11/18 09:01:03;;;;;;;19.48;4.28;;;9.40;99.90;;;;;;4992722;28;20027;-72
2022/11/18 09:03:28;;;;;;;12.63;4.68;;;9.40;99.90;;;;;;4993112;28;20061;-72
2022/11/18 09:06:14;;;;;;;16.25;4.28;;;9.40;99.90;;;;;;4992774;28;20121;-72
2022/11/18 09:08:39;;;;;;;;;;;9.40;99.90;;;;;;4980511;28;20030;-71
2022/11/18 09:11:11;;;;;;;16.45;4.18;;;9.40;99.90;;;;;;4980953;28;20387;-72
2022/11/18 09:13:37;;;;;;;18.83;4.65;;;9.40;99.90;;;;;;4991972;28;20034;-72
2022/11/18 09:16:03;;;;;;;13.63;4.50;;;9.40;99.90;;;;;;4982427;28;20456;-72
2022/11/18 09:18:29;;;;;;;14.38;4.80;;;9.40;99.90;;;;;;4989610;28;20021;-72
2022/11/18 09:21:00;;;;;;;16.33;4.30;;;9.50;99.90;;;;;;4983754;28;20438;-72
2022/11/18 09:23:26;;;;;;;16.77;4.32;;;9.50;99.90;;;;;;5003116;28;20479;-72
2022/11/18 09:26:04;;;;;;;13.80;4.68;;;9.50;99.90;;;;;;4992343;28;20034;-71
2022/11/18 09:28:30;;;;;;;12.23;4.88;;;9.50;99.90;;;;;;4989003;28;20035;-72
2022/11/18 09:30:56;;;;;;;9.20;4.38;;;9.50;99.90;;;;;;4991501;28;20109;-73
2022/11/18 09:33:22;;;;;;;14.50;4.57;;;9.50;99.90;;;;;;4991977;28;20098;-71
2022/11/18 09:35:48;;;;;;;14.57;4.28;;;9.60;99.90;;;;;;4992300;28;20708;-72
2022/11/18 09:38:13;;;;;;;15.38;4.25;;;9.60;99.90;;;;;;4991921;28;20029;-71
2022/11/18 09:40:51;;;;;;;12.35;4.40;;;9.60;99.90;;;;;;4992216;28;20018;-72
2022/11/18 09:43:42;;;;;;;14.70;4.90;;;9.60;99.90;;;;;;4991944;28;20096;-73
2022/11/18 09:46:26;;;;;;;12.63;4.30;;;9.60;99.90;;;;;;4983579;28;20034;-72
2022/11/18 09:49:13;;;;;;;13.55;4.18;;;9.60;99.90;;;;;;4991092;28;20031;-72
2022/11/18 09:51:47;;;;;;;10.63;3.95;;;9.60;99.90;;;;;;4982642;28;20157;-72
2022/11/18 09:54:23;;;;;;;16.15;4.95;;;9.70;99.90;;;;;;4977931;28;20065;-72
2022/11/18 09:56:49;;;;;;;;;;;9.70;99.90;;;;;;4992138;28;20499;-72
2022/11/18 09:59:18;;;;;;;9.25;3.90;;;9.70;99.90;;;;;;4992548;28;19906;-72
2022/11/18 10:01:44;;;;;;;13.65;4.05;;;9.70;99.90;;;;;;4992129;28;20487;-72
2022/11/18 10:04:16;;;;;;;12.75;4.13;;;9.70;99.90;;;;;;4991574;28;20030;-72
2022/11/18 10:06:43;;;;;;;11.77;3.72;;;9.80;99.90;;;;;;4992095;28;20030;-72
2022/11/18 10:09:26;;;;;;;18.35;4.00;;;9.80;99.90;;;;;;4991725;28;20400;-72
2022/11/18 10:12:16;;;;;;;16.13;3.90;;;9.80;99.90;;;;;;4990755;28;20018;-72
2022/11/18 10:15:07;;;;;;;15.55;3.85;;;9.80;99.90;;;;;;4991677;28;20053;-71
2022/11/18 10:18:04;;;;;;;10.73;3.40;;;9.80;99.90;;;;;;4981440;28;20018;-72
2022/11/18 10:20:59;;;;;;;14.32;4.32;;;9.90;99.90;;;;;;4991553;28;20030;-72
2022/11/18 10:23:33;;;;;;;12.95;3.70;;;9.90;99.90;;;;;;4991490;28;20109;-72
2022/11/18 10:25:59;;;;;;;12.57;3.88;;;9.90;99.90;;;;;;4991498;28;20549;-71
2022/11/18 10:28:29;;;;;;;19.20;4.53;;;10.00;99.90;;;;;;4991444;28;20106;-72
2022/11/18 10:31:09;;;;;;;12.18;3.85;;;10.00;99.90;;;;;;4979244;28;20026;-72
2022/11/18 10:33:36;;;;;;;14.30;4.13;;;10.00;99.90;;;;;;4990667;28;20041;-73
2022/11/18 10:36:15;;;;;;;14.90;4.07;;;10.10;99.90;;;;;;4991728;28;20050;-72
2022/11/18 10:38:41;;;;;;;14.43;4.18;;;10.10;99.90;;;;;;4989063;28;20041;-73
2022/11/18 10:41:12;;;;;;;12.35;3.58;;;10.20;99.90;;;;;;4991408;28;20030;-72
2022/11/18 10:43:55;;;;;;;17.35;3.78;;;10.20;99.90;;;;;;4991377;28;20054;-72
2022/11/18 10:46:38;;;;;;;15.10;4.20;;;10.20;99.90;;;;;;4981957;28;20369;-72
2022/11/18 10:49:12;;;;;;;14.32;4.28;;;10.30;99.90;;;;;;4986184;28;20041;-72
2022/11/18 10:52:11;;;;;;;10.55;3.50;;;10.30;99.90;;;;;;4979652;28;20030;-72
2022/11/18 10:54:37;;;;;;;17.90;4.30;;;10.30;99.90;;;;;;4974339;28;20074;-72
2022/11/18 10:57:09;;;;;;;14.88;4.18;;;10.40;99.90;;;;;;4990884;28;20026;-72
2022/11/18 10:59:51;;;;;;;16.52;4.05;;;10.40;99.90;;;;;;4990225;28;20030;-71
2022/11/18 11:02:17;;;;;;;17.80;4.22;;;10.40;99.90;;;;;;4990802;28;20042;-72
2022/11/18 11:04:47;;;;;;;15.13;4.65;;;10.50;99.90;;;;;;4990760;28;20438;-71
2022/11/18 11:07:22;;;;;;;17.05;4.15;;;10.60;99.90;;;;;;4990782;28;20014;-72
2022/11/18 11:09:59;;;;;;;13.60;5.13;;;10.60;99.90;;;;;;4990529;28;20122;-72
2022/11/18 11:12:28;;;;;;;12.85;4.50;;;10.60;99.90;;;;;;4991146;28;20509;-71
2022/11/18 11:14:56;;;;;;;14.90;4.80;;;10.60;99.90;;;;;;4975111;28;20053;-72
2022/11/18 11:17:47;;;;;;;15.02;4.25;;;10.60;99.90;;;;;;4979210;28;20030;-71
2022/11/18 11:20:21;;;;;;;11.18;4.65;;;10.60;99.90;;;;;;4987200;28;20015;-72
2022/11/18 11:22:47;;;;;;;17.30;5.55;;;10.60;99.90;;;;;;4971439;28;20027;-72
2022/11/18 11:25:20;;;;;;;12.40;5.00;;;10.60;99.90;;;;;;4986810;28;20122;-71
2022/11/18 11:27:55;;;;;;;12.80;5.30;;;10.60;99.90;;;;;;4990538;28;20034;-72
2022/11/18 11:30:24;;;;;;;13.50;4.90;;;10.50;99.90;;;;;;4990155;28;20023;-72
2022/11/18 11:33:03;;;;;;;14.30;4.78;;;10.50;99.90;;;;;;4990379;28;20030;-72
2022/11/18 11:35:28;;;;;;;17.58;5.85;;;10.60;99.90;;;;;;4990631;28;20072;-71
2022/11/18 11:38:16;;;;;;;14.05;5.82;;;10.60;99.90;;;;;;4990368;28;20026;-72
2022/11/18 11:40:54;;;;;;;15.75;5.97;;;10.60;99.90;;;;;;4990004;28;20030;-73
2022/11/18 11:43:48;;;;;;;15.68;6.45;;;10.60;99.90;;;;;;4990800;28;20464;-72
2022/11/18 11:46:34;;;;;;;16.48;6.78;;;10.60;99.90;;;;;;4949353;28;20462;-72
2022/11/18 11:49:25;;;;;;;16.52;6.78;;;10.60;99.90;;;;;;4988627;28;20034;-72
2022/11/18 11:52:01;;;;;;;17.05;7.53;;;10.60;99.90;;;;;;4985881;28;20030;-71
2022/11/18 11:54:36;;;;;;;19.27;8.00;;;10.70;99.90;;;;;;4992737;28;20125;-72
2022/11/18 11:57:04;;;;;;;;;;;10.70;99.90;;;;;;4993982;28;20022;-72
2022/11/18 11:59:43;;;;;;;18.65;8.70;;;10.70;99.90;;;;;;4993772;28;20004;-72
2022/11/18 12:02:28;;;;;;;17.33;8.25;;;10.70;99.90;;;;;;4982897;28;20102;-72
2022/11/18 12:05:06;;;;;;;17.42;8.50;;;10.70;99.90;;;;;;4981285;28;20026;-71
2022/11/18 12:07:38;;;;;;;22.05;9.43;;;10.80;99.90;;;;;;4993999;28;20391;-72
2022/11/18 12:10:26;;;;;;;18.40;9.23;;;10.70;99.90;;;;;;4994112;28;20517;-71
2022/11/18 12:12:55;;;;;;;20.75;8.90;;;10.80;99.90;;;;;;4994461;28;20064;-72
2022/11/18 12:15:35;;;;;;;13.80;8.52;;;10.80;99.90;;;;;;4993934;28;20478;-72
2022/11/18 12:18:25;;;;;;;18.98;8.55;;;10.80;99.90;;;;;;4994020;28;20027;-71
2022/11/18 12:20:52;;;;;;;19.45;9.00;;;10.80;99.90;;;;;;4994392;28;20022;-73
2022/11/18 12:23:19;;;;;;;17.80;8.80;;;10.70;99.90;;;;;;4979920;28;20019;-71
2022/11/18 12:25:45;;;;;;;20.88;8.90;;;10.80;99.90;;;;;;4993775;28;20064;-72
2022/11/18 12:28:21;;;;;;;16.58;8.40;;;10.80;99.90;;;;;;4993268;28;20037;-72
2022/11/18 12:30:46;;;;;;;18.20;8.93;;;10.80;99.90;;;;;;4993535;28;20130;-72
2022/11/18 12:33:15;;;;;;;19.00;9.18;;;10.80;99.90;;;;;;4993972;28;20459;-72
2022/11/18 12:35:49;;;;;;;17.38;8.45;;;10.70;99.90;;;;;;4993416;28;20018;-71
2022/11/18 12:38:30;;;;;;;19.40;9.20;;;10.70;99.90;;;;;;4993460;28;20030;-72
2022/11/18 12:40:55;;;;;;;17.75;9.38;;;10.70;99.90;;;;;;4993277;28;20034;-72
2022/11/18 12:43:45;;;;;;;20.42;9.95;;;10.70;99.90;;;;;;4993006;28;20117;-71
2022/11/18 12:46:34;;;;;;;18.92;9.73;;;10.70;99.90;;;;;;4994012;28;20027;-72
2022/11/18 12:49:35;;;;;;;22.05;10.00;;;10.70;99.90;;;;;;4986685;28;20030;-71
2022/11/18 12:52:03;;;;;;;20.13;10.05;;;10.70;99.90;;;;;;4932881;29;20473;-71
2022/11/18 12:54:58;;;;;;;15.95;10.02;;;10.60;99.90;;;;;;4916990;29;20044;-72
2022/11/18 12:57:43;;;;;;;19.90;10.35;;;10.60;99.90;;;;;;4917057;29;20046;-72
2022/11/18 13:00:16;;;;;;;;;;;10.60;99.90;;;;;;4932563;29;20060;-71
2022/11/18 13:02:55;;;;;;;16.23;10.50;;;10.60;99.90;;;;;;4933867;29;19911;-71
2022/11/18 13:05:24;;;;;;;24.95;10.80;;;10.60;99.90;;;;;;4917166;29;20043;-72
2022/11/18 13:08:13;;;;;;;19.35;11.55;;;10.60;99.90;;;;;;4932456;29;20044;-71
2022/11/18 13:19:31;;;;;;;18.35;10.75;;;10.50;99.90;;;;;;4923610;29;20079;-70
2022/11/18 13:24:44;;;;;;;;;;;10.60;99.90;;;;;;4933074;29;20070;-71
2022/11/18 13:27:26;;;;;;;17.85;10.07;;;10.50;99.90;;;;;;4989916;28;19959;-70
2022/11/18 13:30:02;;;;;;;17.67;10.07;;;10.50;99.90;;;;;;4992785;28;20027;-70
2022/11/18 13:32:28;;;;;;;17.30;10.18;;;10.50;99.90;;;;;;4992559;28;20026;-70